Aviation Digital Data Service (ADDS)

Output produced by METARs form (0349 UTC 19 July 2018)
found at http://www.aviationweather.gov/adds/metars/
 
EPWA 190330Z 30008KT 9000 BKN006 BKN013 20/19 Q1008 NOSIG
TAF EPWA 190230Z 1903/2003 29008KT 9999 SCT005 BKN012 
     PROB30 1903/1906 3000 BR BKN005 
     BECMG 1906/1909 SCT030 
     TEMPO 1912/1922 VRB15G28KT 3000 TSRA BKN006 BKN015CB 
     PROB40 1922/2003 BKN004